sensor_id;sensor_type;location;lat;lon;timestamp;P1;durP1;ratioP1;P2;durP2;ratioP2
43646;SDS011;56152;49.996;18.980;2022-08-24T00:03:23;37.05;;;23.77;;
43646;SDS011;56152;49.996;18.980;2022-08-24T00:08:26;38.80;;;24.38;;
43646;SDS011;56152;49.996;18.980;2022-08-24T00:13:30;40.40;;;24.90;;
43646;SDS011;56152;49.996;18.980;2022-08-24T00:23:45;43.20;;;26.83;;
43646;SDS011;56152;49.996;18.980;2022-08-24T00:34:36;43.92;;;26.10;;
43646;SDS011;56152;49.996;18.980;2022-08-24T00:45:24;44.50;;;25.13;;
43646;SDS011;56152;49.996;18.980;2022-08-24T00:50:39;44.10;;;25.20;;
43646;SDS011;56152;49.996;18.980;2022-08-24T00:56:09;36.20;;;24.90;;
43646;SDS011;56152;49.996;18.980;2022-08-24T01:01:31;48.83;;;27.58;;
43646;SDS011;56152;49.996;18.980;2022-08-24T01:06:37;49.90;;;28.50;;
43646;SDS011;56152;49.996;18.980;2022-08-24T01:11:41;49.83;;;27.95;;
43646;SDS011;56152;49.996;18.980;2022-08-24T01:16:49;49.97;;;28.67;;
43646;SDS011;56152;49.996;18.980;2022-08-24T01:22:20;51.08;;;28.48;;
43646;SDS011;56152;49.996;18.980;2022-08-24T01:27:40;41.85;;;25.27;;
43646;SDS011;56152;49.996;18.980;2022-08-24T01:38:08;46.38;;;26.33;;
43646;SDS011;56152;49.996;18.980;2022-08-24T01:43:16;51.30;;;28.23;;
43646;SDS011;56152;49.996;18.980;2022-08-24T01:48:21;58.35;;;29.88;;
43646;SDS011;56152;49.996;18.980;2022-08-24T01:53:23;61.15;;;28.92;;
43646;SDS011;56152;49.996;18.980;2022-08-24T01:58:27;67.05;;;30.40;;
43646;SDS011;56152;49.996;18.980;2022-08-24T02:03:29;69.68;;;31.88;;
43646;SDS011;56152;49.996;18.980;2022-08-24T02:08:31;91.70;;;37.38;;
43646;SDS011;56152;49.996;18.980;2022-08-24T02:19:04;94.03;;;41.30;;
43646;SDS011;56152;49.996;18.980;2022-08-24T02:29:45;79.43;;;33.95;;
43646;SDS011;56152;49.996;18.980;2022-08-24T02:34:50;79.38;;;33.05;;
43646;SDS011;56152;49.996;18.980;2022-08-24T02:39:52;64.47;;;31.52;;
43646;SDS011;56152;49.996;18.980;2022-08-24T02:44:56;75.10;;;32.58;;
43646;SDS011;56152;49.996;18.980;2022-08-24T02:50:00;72.88;;;33.42;;
43646;SDS011;56152;49.996;18.980;2022-08-24T02:55:04;69.25;;;31.13;;
43646;SDS011;56152;49.996;18.980;2022-08-24T03:00:10;62.13;;;30.02;;
43646;SDS011;56152;49.996;18.980;2022-08-24T03:05:15;60.93;;;28.23;;
43646;SDS011;56152;49.996;18.980;2022-08-24T03:10:19;67.55;;;29.38;;
43646;SDS011;56152;49.996;18.980;2022-08-24T03:15:25;62.78;;;28.85;;
43646;SDS011;56152;49.996;18.980;2022-08-24T03:20:28;60.35;;;27.85;;
43646;SDS011;56152;49.996;18.980;2022-08-24T03:25:30;70.68;;;29.73;;
43646;SDS011;56152;49.996;18.980;2022-08-24T03:30:33;58.65;;;29.00;;
43646;SDS011;56152;49.996;18.980;2022-08-24T03:35:35;66.40;;;29.35;;
43646;SDS011;56152;49.996;18.980;2022-08-24T03:40:37;70.63;;;28.67;;
43646;SDS011;56152;49.996;18.980;2022-08-24T03:51:09;69.00;;;29.45;;
43646;SDS011;56152;49.996;18.980;2022-08-24T03:56:12;68.90;;;26.70;;
43646;SDS011;56152;49.996;18.980;2022-08-24T04:06:45;69.43;;;28.98;;
43646;SDS011;56152;49.996;18.980;2022-08-24T04:11:47;81.75;;;27.73;;
43646;SDS011;56152;49.996;18.980;2022-08-24T04:16:52;70.18;;;28.02;;
43646;SDS011;56152;49.996;18.980;2022-08-24T04:21:55;70.65;;;26.85;;
43646;SDS011;56152;49.996;18.980;2022-08-24T04:26:58;114.40;;;35.30;;
43646;SDS011;56152;49.996;18.980;2022-08-24T04:32:08;120.70;;;35.78;;
43646;SDS011;56152;49.996;18.980;2022-08-24T04:37:10;107.03;;;31.80;;
43646;SDS011;56152;49.996;18.980;2022-08-24T04:42:16;173.13;;;42.53;;
43646;SDS011;56152;49.996;18.980;2022-08-24T04:47:20;91.90;;;29.88;;
43646;SDS011;56152;49.996;18.980;2022-08-24T04:52:37;86.80;;;29.90;;
43646;SDS011;56152;49.996;18.980;2022-08-24T04:57:39;87.47;;;30.73;;
43646;SDS011;56152;49.996;18.980;2022-08-24T05:02:44;87.18;;;28.23;;
43646;SDS011;56152;49.996;18.980;2022-08-24T05:07:47;84.32;;;28.83;;
43646;SDS011;56152;49.996;18.980;2022-08-24T05:12:49;83.25;;;29.90;;
43646;SDS011;56152;49.996;18.980;2022-08-24T05:23:35;86.40;;;27.52;;
43646;SDS011;56152;49.996;18.980;2022-08-24T05:28:42;78.70;;;28.90;;
43646;SDS011;56152;49.996;18.980;2022-08-24T05:33:44;87.93;;;29.40;;
43646;SDS011;56152;49.996;18.980;2022-08-24T05:39:10;82.47;;;28.85;;
43646;SDS011;56152;49.996;18.980;2022-08-24T05:44:15;76.30;;;25.73;;
43646;SDS011;56152;49.996;18.980;2022-08-24T05:49:29;74.85;;;26.95;;
43646;SDS011;56152;49.996;18.980;2022-08-24T05:54:32;74.25;;;26.73;;
43646;SDS011;56152;49.996;18.980;2022-08-24T05:59:38;72.65;;;26.15;;
43646;SDS011;56152;49.996;18.980;2022-08-24T06:04:42;69.05;;;26.38;;
43646;SDS011;56152;49.996;18.980;2022-08-24T06:09:46;68.70;;;25.38;;
43646;SDS011;56152;49.996;18.980;2022-08-24T06:14:53;67.03;;;25.30;;
43646;SDS011;56152;49.996;18.980;2022-08-24T06:19:55;57.85;;;21.63;;
43646;SDS011;56152;49.996;18.980;2022-08-24T06:24:59;53.90;;;23.05;;
43646;SDS011;56152;49.996;18.980;2022-08-24T06:30:21;49.08;;;21.98;;
43646;SDS011;56152;49.996;18.980;2022-08-24T06:35:23;45.38;;;21.55;;
43646;SDS011;56152;49.996;18.980;2022-08-24T06:40:32;43.00;;;20.95;;
43646;SDS011;56152;49.996;18.980;2022-08-24T06:45:34;45.30;;;22.27;;
43646;SDS011;56152;49.996;18.980;2022-08-24T06:55:57;45.25;;;21.42;;
43646;SDS011;56152;49.996;18.980;2022-08-24T07:01:06;52.90;;;23.90;;
43646;SDS011;56152;49.996;18.980;2022-08-24T07:06:10;44.53;;;20.13;;
43646;SDS011;56152;49.996;18.980;2022-08-24T07:11:31;45.03;;;22.83;;
43646;SDS011;56152;49.996;18.980;2022-08-24T07:16:34;41.28;;;20.48;;
43646;SDS011;56152;49.996;18.980;2022-08-24T07:21:36;41.05;;;22.10;;
43646;SDS011;56152;49.996;18.980;2022-08-24T07:26:40;32.50;;;19.65;;
43646;SDS011;56152;49.996;18.980;2022-08-24T07:31:44;27.98;;;17.45;;
43646;SDS011;56152;49.996;18.980;2022-08-24T07:36:49;30.20;;;18.52;;
43646;SDS011;56152;49.996;18.980;2022-08-24T07:41:54;32.35;;;20.13;;
43646;SDS011;56152;49.996;18.980;2022-08-24T07:47:00;19.47;;;13.23;;
43646;SDS011;56152;49.996;18.980;2022-08-24T07:52:05;26.05;;;18.17;;
43646;SDS011;56152;49.996;18.980;2022-08-24T07:57:11;25.67;;;16.40;;
43646;SDS011;56152;49.996;18.980;2022-08-24T08:02:12;21.95;;;16.55;;
43646;SDS011;56152;49.996;18.980;2022-08-24T08:07:14;20.75;;;15.70;;
43646;SDS011;56152;49.996;18.980;2022-08-24T08:12:17;19.10;;;13.50;;
43646;SDS011;56152;49.996;18.980;2022-08-24T08:17:20;20.48;;;15.02;;
43646;SDS011;56152;49.996;18.980;2022-08-24T08:22:22;24.98;;;18.40;;
43646;SDS011;56152;49.996;18.980;2022-08-24T08:27:45;27.08;;;19.27;;
43646;SDS011;56152;49.996;18.980;2022-08-24T08:32:51;21.85;;;16.75;;
43646;SDS011;56152;49.996;18.980;2022-08-24T08:37:57;19.65;;;16.23;;
43646;SDS011;56152;49.996;18.980;2022-08-24T08:43:11;22.48;;;18.25;;
43646;SDS011;56152;49.996;18.980;2022-08-24T08:48:25;23.60;;;16.30;;
43646;SDS011;56152;49.996;18.980;2022-08-24T08:54:10;22.03;;;16.47;;
43646;SDS011;56152;49.996;18.980;2022-08-24T08:59:28;23.60;;;15.70;;
43646;SDS011;56152;49.996;18.980;2022-08-24T09:04:46;18.67;;;15.15;;
43646;SDS011;56152;49.996;18.980;2022-08-24T09:15:31;18.50;;;12.20;;
43646;SDS011;56152;49.996;18.980;2022-08-24T09:20:49;28.58;;;18.85;;
43646;SDS011;56152;49.996;18.980;2022-08-24T09:26:05;21.20;;;17.13;;
43646;SDS011;56152;49.996;18.980;2022-08-24T09:31:29;22.80;;;16.60;;
43646;SDS011;56152;49.996;18.980;2022-08-24T09:36:45;21.98;;;16.45;;
43646;SDS011;56152;49.996;18.980;2022-08-24T09:41:59;21.75;;;16.73;;
43646;SDS011;56152;49.996;18.980;2022-08-24T09:47:27;25.67;;;19.98;;
43646;SDS011;56152;49.996;18.980;2022-08-24T09:58:39;28.67;;;19.67;;
43646;SDS011;56152;49.996;18.980;2022-08-24T10:03:58;27.35;;;19.42;;
43646;SDS011;56152;49.996;18.980;2022-08-24T10:09:19;21.48;;;15.70;;
43646;SDS011;56152;49.996;18.980;2022-08-24T10:14:44;29.15;;;18.77;;
43646;SDS011;56152;49.996;18.980;2022-08-24T10:20:00;34.38;;;22.40;;
43646;SDS011;56152;49.996;18.980;2022-08-24T10:25:15;31.45;;;20.73;;
43646;SDS011;56152;49.996;18.980;2022-08-24T10:30:36;27.38;;;18.23;;
43646;SDS011;56152;49.996;18.980;2022-08-24T10:36:16;27.20;;;17.30;;
43646;SDS011;56152;49.996;18.980;2022-08-24T10:41:46;32.00;;;17.27;;
43646;SDS011;56152;49.996;18.980;2022-08-24T10:47:11;24.02;;;15.90;;
43646;SDS011;56152;49.996;18.980;2022-08-24T11:03:51;29.38;;;20.40;;
43646;SDS011;56152;49.996;18.980;2022-08-24T11:09:00;30.73;;;17.67;;
43646;SDS011;56152;49.996;18.980;2022-08-24T11:14:22;29.02;;;19.25;;
43646;SDS011;56152;49.996;18.980;2022-08-24T11:19:30;27.90;;;17.47;;
43646;SDS011;56152;49.996;18.980;2022-08-24T11:24:40;34.13;;;18.95;;
43646;SDS011;56152;49.996;18.980;2022-08-24T11:29:54;35.20;;;19.48;;
43646;SDS011;56152;49.996;18.980;2022-08-24T11:35:06;28.60;;;20.87;;
43646;SDS011;56152;49.996;18.980;2022-08-24T11:40:19;33.67;;;18.67;;
43646;SDS011;56152;49.996;18.980;2022-08-24T11:45:25;33.67;;;20.48;;
43646;SDS011;56152;49.996;18.980;2022-08-24T11:50:35;37.95;;;22.90;;
43646;SDS011;56152;49.996;18.980;2022-08-24T11:55:45;34.10;;;21.08;;
43646;SDS011;56152;49.996;18.980;2022-08-24T12:01:05;27.75;;;17.15;;
43646;SDS011;56152;49.996;18.980;2022-08-24T12:06:17;40.30;;;21.17;;
43646;SDS011;56152;49.996;18.980;2022-08-24T12:11:34;32.00;;;21.25;;
43646;SDS011;56152;49.996;18.980;2022-08-24T12:16:47;36.10;;;20.85;;
43646;SDS011;56152;49.996;18.980;2022-08-24T12:21:56;39.83;;;19.00;;
43646;SDS011;56152;49.996;18.980;2022-08-24T12:27:05;32.88;;;18.08;;
43646;SDS011;56152;49.996;18.980;2022-08-24T12:32:11;50.33;;;23.88;;
43646;SDS011;56152;49.996;18.980;2022-08-24T12:37:18;31.55;;;16.13;;
43646;SDS011;56152;49.996;18.980;2022-08-24T12:42:31;26.25;;;15.57;;
43646;SDS011;56152;49.996;18.980;2022-08-24T12:47:40;44.47;;;21.67;;
43646;SDS011;56152;49.996;18.980;2022-08-24T12:58:27;28.90;;;17.25;;
43646;SDS011;56152;49.996;18.980;2022-08-24T13:03:46;30.50;;;17.80;;
43646;SDS011;56152;49.996;18.980;2022-08-24T13:09:04;33.28;;;17.52;;
43646;SDS011;56152;49.996;18.980;2022-08-24T13:14:16;32.97;;;16.88;;
43646;SDS011;56152;49.996;18.980;2022-08-24T13:19:33;44.72;;;20.95;;
43646;SDS011;56152;49.996;18.980;2022-08-24T13:24:42;31.38;;;16.23;;
43646;SDS011;56152;49.996;18.980;2022-08-24T13:30:07;30.77;;;15.40;;
43646;SDS011;56152;49.996;18.980;2022-08-24T13:35:29;32.33;;;16.23;;
43646;SDS011;56152;49.996;18.980;2022-08-24T13:40:36;31.95;;;16.73;;
43646;SDS011;56152;49.996;18.980;2022-08-24T13:45:49;33.03;;;15.85;;
43646;SDS011;56152;49.996;18.980;2022-08-24T13:51:12;31.27;;;18.05;;
43646;SDS011;56152;49.996;18.980;2022-08-24T13:56:37;29.42;;;15.80;;
43646;SDS011;56152;49.996;18.980;2022-08-24T14:02:01;22.90;;;13.88;;
43646;SDS011;56152;49.996;18.980;2022-08-24T14:07:11;32.58;;;17.35;;
43646;SDS011;56152;49.996;18.980;2022-08-24T14:12:22;32.22;;;17.83;;
43646;SDS011;56152;49.996;18.980;2022-08-24T14:17:55;27.60;;;16.60;;
43646;SDS011;56152;49.996;18.980;2022-08-24T14:23:16;32.47;;;17.92;;
43646;SDS011;56152;49.996;18.980;2022-08-24T14:28:35;36.80;;;16.48;;
43646;SDS011;56152;49.996;18.980;2022-08-24T14:33:43;29.77;;;17.67;;
43646;SDS011;56152;49.996;18.980;2022-08-24T14:38:53;30.67;;;14.48;;
43646;SDS011;56152;49.996;18.980;2022-08-24T14:44:05;27.52;;;14.65;;
43646;SDS011;56152;49.996;18.980;2022-08-24T14:49:17;27.10;;;15.32;;
43646;SDS011;56152;49.996;18.980;2022-08-24T14:54:29;24.83;;;14.77;;
43646;SDS011;56152;49.996;18.980;2022-08-24T14:59:42;27.02;;;14.70;;
43646;SDS011;56152;49.996;18.980;2022-08-24T15:05:00;25.00;;;13.27;;
43646;SDS011;56152;49.996;18.980;2022-08-24T15:10:10;20.27;;;11.50;;
43646;SDS011;56152;49.996;18.980;2022-08-24T15:15:21;25.48;;;12.75;;
43646;SDS011;56152;49.996;18.980;2022-08-24T15:26:30;23.52;;;11.85;;
43646;SDS011;56152;49.996;18.980;2022-08-24T15:31:53;23.40;;;12.18;;
43646;SDS011;56152;49.996;18.980;2022-08-24T15:36:59;24.48;;;13.65;;
43646;SDS011;56152;49.996;18.980;2022-08-24T15:42:11;28.85;;;11.80;;
43646;SDS011;56152;49.996;18.980;2022-08-24T15:47:22;25.38;;;9.50;;
43646;SDS011;56152;49.996;18.980;2022-08-24T15:52:42;23.95;;;10.02;;
43646;SDS011;56152;49.996;18.980;2022-08-24T15:57:50;21.35;;;9.32;;
43646;SDS011;56152;49.996;18.980;2022-08-24T16:03:18;20.27;;;9.98;;
